Time;durP1;ratioP1;P1;durP2;ratioP2;P2;SDS_P1;SDS_P2;PMS_P1;PMS_P2;Temp;Humidity;BMP_temperature;BMP_pressure;BME280_temperature;BME280_humidity;BME280_pressure;Samples;Min_cycle;Max_cycle;Signal;HPM_P1;HPM_P2
2021/04/05 00:02:40;;;;;;;19.37;12.50;;;;;;;5.68;67.12;100432.47;6216983;28;20225;-54
2021/04/05 00:06:00;;;;;;;20.57;12.63;;;;;;;5.68;67.35;100429.00;6197471;28;20257;-52
2021/04/05 00:09:21;;;;;;;20.50;12.57;;;;;;;5.53;67.61;100415.16;6191796;28;20234;-51
2021/04/05 00:12:41;;;;;;;20.00;13.10;;;;;;;5.63;67.52;100400.56;6234437;28;20277;-51
2021/04/05 00:16:01;;;;;;;20.63;13.70;;;;;;;5.70;66.94;100394.56;6222318;28;20225;-52
2021/04/05 00:19:23;;;;;;;19.37;12.73;;;;;;;5.61;67.27;100371.28;6233171;28;20224;-54
2021/04/05 00:22:44;;;;;;;16.87;11.20;;;;;;;5.45;67.75;100385.00;6229518;28;20474;-54
2021/04/05 00:26:05;;;;;;;18.33;13.97;;;;;;;5.65;67.37;100346.31;6226282;28;20232;-52
2021/04/05 00:29:25;;;;;;;21.03;13.27;;;;;;;5.69;66.55;100341.16;6236821;28;20820;-51
2021/04/05 00:32:46;;;;;;;17.93;12.77;;;;;;;5.62;67.03;100341.13;6216969;28;20253;-50
2021/04/05 00:36:08;;;;;;;19.40;14.17;;;;;;;5.83;66.15;100319.66;6216708;28;20241;-51
2021/04/05 00:39:29;;;;;;;21.60;14.70;;;;;;;5.79;66.38;100292.97;6224187;28;20229;-52
2021/04/05 00:42:50;;;;;;;19.80;15.30;;;;;;;5.96;65.60;100294.75;6216280;28;20249;-52
2021/04/05 00:46:11;;;;;;;20.67;15.87;;;;;;;5.86;65.94;100291.25;6221762;28;20229;-52
2021/04/05 00:49:31;;;;;;;24.67;15.90;;;;;;;5.85;66.23;100249.03;6240719;28;20236;-49
2021/04/05 00:52:54;;;;;;;22.37;17.10;;;;;;;5.78;66.38;100265.41;6240496;28;20228;-49
2021/04/05 00:56:17;;;;;;;20.53;15.90;;;;;;;6.05;65.30;100264.59;6214304;28;20230;-54
2021/04/05 00:59:37;;;;;;;18.77;13.47;;;;;;;5.75;66.21;100243.88;6201533;28;20237;-51
2021/04/05 01:02:58;;;;;;;27.83;18.90;;;;;;;6.02;65.47;100237.91;6219244;28;20236;-52
2021/04/05 01:06:22;;;;;;;23.30;16.53;;;;;;;5.76;66.06;100245.56;6221555;28;20233;-53
2021/04/05 01:09:44;;;;;;;38.40;18.93;;;;;;;5.75;66.37;100216.28;6230365;28;20323;-55
2021/04/05 01:13:04;;;;;;;22.90;16.67;;;;;;;6.03;65.46;100206.00;6239646;28;20625;-48
2021/04/05 01:16:27;;;;;;;25.23;17.43;;;;;;;5.88;65.95;100197.34;6206412;28;20233;-54
2021/04/05 01:19:47;;;;;;;22.77;18.80;;;;;;;5.99;65.55;100205.16;6216415;28;20900;-50
2021/04/05 01:23:09;;;;;;;26.33;18.03;;;;;;;5.92;65.98;100190.47;6207858;28;20224;-53
2021/04/05 01:26:33;;;;;;;29.30;21.97;;;;;;;6.02;65.60;100181.03;6223284;28;20220;-54
2021/04/05 01:29:53;;;;;;;22.07;17.83;;;;;;;5.93;66.00;100171.50;6220312;28;20246;-52
2021/04/05 01:33:18;;;;;;;21.27;19.00;;;;;;;6.10;65.49;100179.28;6236735;28;20618;-55
2021/04/05 01:36:39;;;;;;;23.70;19.07;;;;;;;5.83;66.31;100160.31;6238699;28;20517;-55
2021/04/05 01:40:00;;;;;;;24.07;19.93;;;;;;;6.16;65.79;100157.75;6215072;28;20248;-51
2021/04/05 01:43:20;;;;;;;29.17;19.23;;;;;;;5.86;66.42;100129.31;6236454;28;20232;-50
2021/04/05 01:46:41;;;;;;;23.23;19.50;;;;;;;6.25;65.56;100104.28;6228826;28;20270;-52
2021/04/05 01:50:01;;;;;;;22.43;17.00;;;;;;;5.93;66.75;100088.78;6224882;28;20233;-51
2021/04/05 01:53:22;;;;;;;27.17;17.87;;;;;;;5.98;66.92;100107.78;6231037;28;20557;-50
2021/04/05 01:56:44;;;;;;;19.60;17.57;;;;;;;6.09;66.48;100080.19;6199496;28;20269;-53
2021/04/05 02:00:12;;;;;;;19.50;14.90;;;;;;;6.02;66.63;100072.47;6207133;28;20236;-52
2021/04/05 02:03:33;;;;;;;26.93;19.13;;;;;;;6.38;65.37;100061.16;6199542;28;20257;-50
2021/04/05 02:06:54;;;;;;;26.77;17.07;;;;;;;5.87;67.93;100044.88;6208945;28;20241;-50
2021/04/05 02:10:18;;;;;;;21.03;15.20;;;;;;;6.05;67.15;100034.53;6236938;28;20260;-53
2021/04/05 02:13:40;;;;;;;20.23;16.23;;;;;;;6.28;66.75;100012.91;6210336;28;20230;-48
2021/04/05 02:17:00;;;;;;;24.33;16.97;;;;;;;6.13;67.27;99992.28;6215374;28;20725;-53
2021/04/05 02:20:21;;;;;;;20.67;14.33;;;;;;;6.16;67.65;99984.53;6239673;28;20236;-51
2021/04/05 02:23:42;;;;;;;20.40;16.60;;;;;;;6.30;67.14;99986.19;6212223;28;20324;-52
2021/04/05 02:27:04;;;;;;;21.70;17.30;;;;;;;6.06;68.34;99992.31;6194003;28;20623;-50
2021/04/05 02:30:29;;;;;;;21.37;14.00;;;;;;;5.94;68.72;99960.47;6211105;28;20263;-49
2021/04/05 02:33:51;;;;;;;22.40;17.20;;;;;;;6.23;67.77;99947.44;6216980;28;20229;-53
2021/04/05 02:37:13;;;;;;;23.03;14.33;;;;;;;5.91;69.00;99967.38;6241685;28;20323;-55
2021/04/05 02:40:33;;;;;;;22.60;15.87;;;;;;;6.24;68.28;99924.16;6217705;28;20232;-52
2021/04/05 02:43:55;;;;;;;25.17;15.40;;;;;;;6.28;68.40;99909.47;6219345;28;20230;-49
2021/04/05 02:47:17;;;;;;;28.00;17.40;;;;;;;6.07;69.58;99903.56;6213421;28;20323;-51
2021/04/05 02:50:38;;;;;;;26.67;15.73;;;;;;;6.46;68.34;99885.22;6241613;28;20225;-52
2021/04/05 02:54:00;;;;;;;22.00;14.33;;;;;;;6.13;69.64;99894.91;6223355;28;20609;-50
2021/04/05 02:57:21;;;;;;;27.37;16.13;;;;;;;6.02;70.19;99879.47;6205416;28;20230;-53
2021/04/05 03:00:41;;;;;;;22.27;14.93;;;;;;;6.13;69.56;99870.78;6228867;28;20232;-51
2021/04/05 03:04:03;;;;;;;25.80;15.07;;;;;;;6.33;69.07;99856.00;6233143;28;20514;-52
2021/04/05 03:07:24;;;;;;;27.97;15.83;;;;;;;6.32;69.61;99859.47;6244028;28;20586;-55
2021/04/05 03:10:45;;;;;;;19.33;15.03;;;;;;;6.23;69.60;99850.03;6221688;28;20240;-52
2021/04/05 03:14:09;;;;;;;23.60;13.03;;;;;;;6.03;70.64;99847.59;6235520;28;20315;-51
2021/04/05 03:17:30;;;;;;;27.33;15.53;;;;;;;5.99;71.60;99853.66;6235012;28;20232;-53
2021/04/05 03:20:53;;;;;;;20.70;14.87;;;;;;;5.85;72.73;99856.25;6232662;28;20233;-52
2021/04/05 03:24:14;;;;;;;25.50;16.10;;;;;;;5.87;74.33;99840.75;6207941;28;20236;-55
2021/04/05 03:27:35;;;;;;;26.47;17.23;;;;;;;5.90;76.02;99812.31;6215227;28;20237;-48
2021/04/05 03:31:00;;;;;;;29.67;18.00;;;;;;;5.56;78.05;99803.88;6207651;28;20232;-47
2021/04/05 03:34:25;;;;;;;30.10;18.50;;;;;;;5.46;79.53;99813.38;6219347;28;20253;-52
2021/04/05 03:37:48;;;;;;;25.63;18.77;;;;;;;5.40;81.33;99793.63;6218205;28;20304;-51
2021/04/05 03:41:17;;;;;;;31.73;19.63;;;;;;;5.51;81.96;99791.00;6199711;28;20553;-47
2021/04/05 03:44:45;;;;;;;30.60;19.47;;;;;;;5.59;81.51;99763.41;6218058;28;20289;-53
2021/04/05 03:48:13;;;;;;;23.00;19.80;;;;;;;5.68;81.17;99783.13;6223658;28;20241;-51
2021/04/05 03:51:37;;;;;;;32.30;21.03;;;;;;;5.42;82.33;99791.03;6222651;28;20240;-49
2021/04/05 03:55:02;;;;;;;29.63;20.03;;;;;;;5.49;82.61;99772.06;6239679;28;20229;-53
2021/04/05 03:58:27;;;;;;;31.07;19.90;;;;;;;5.37;83.39;99761.78;6207294;28;20221;-47
2021/04/05 04:01:49;;;;;;;25.30;17.53;;;;;;;5.46;83.24;99751.41;6240699;28;20751;-51
2021/04/05 04:05:15;;;;;;;28.37;21.97;;;;;;;5.50;83.55;99759.13;6243161;28;20335;-52
2021/04/05 04:08:40;;;;;;;23.30;16.23;;;;;;;5.32;84.31;99757.50;6244945;28;20539;-53
2021/04/05 04:12:02;;;;;;;31.27;20.40;;;;;;;5.44;84.93;99747.97;6206611;28;20689;-51
2021/04/05 04:15:23;;;;;;;27.40;19.30;;;;;;;5.37;85.13;99761.78;6239584;28;20248;-50
2021/04/05 04:18:43;;;;;;;27.17;20.47;;;;;;;5.73;84.09;99766.75;6197501;28;20240;-49
2021/04/05 04:22:05;;;;;;;25.83;19.73;;;;;;;5.95;83.33;99787.31;6200028;28;20472;-47
2021/04/05 04:25:25;;;;;;;11.07;9.03;;;;;;;5.80;81.15;99797.75;6224026;28;20610;-49
2021/04/05 04:28:46;;;;;;;6.47;5.37;;;;;;;5.61;79.34;99823.66;6217536;28;20241;-50
2021/04/05 04:32:07;;;;;;;2.20;1.87;;;;;;;5.45;78.06;99811.69;6222568;28;20308;-48
2021/04/05 04:35:27;;;;;;;1.20;0.90;;;;;;;5.24;78.12;99816.06;6230257;28;20303;-51
2021/04/05 04:38:49;;;;;;;1.63;0.80;;;;;;;5.29;77.89;99804.00;6202639;28;20236;-48
2021/04/05 04:42:11;;;;;;;1.50;0.70;;;;;;;5.21;77.80;99803.16;6197158;28;20332;-55
2021/04/05 04:45:34;;;;;;;2.50;1.03;;;;;;;5.39;77.14;99803.94;6225065;28;20225;-51
2021/04/05 04:48:55;;;;;;;7.07;1.40;;;;;;;5.47;76.68;99797.03;6206163;28;20268;-53
2021/04/05 04:52:20;;;;;;;2.17;1.40;;;;;;;5.48;75.99;99793.56;6193103;28;20226;-49
2021/04/05 04:55:41;;;;;;;3.37;1.50;;;;;;;5.17;75.68;99783.38;6231618;28;20617;-52
2021/04/05 04:59:04;;;;;;;3.03;1.10;;;;;;;5.03;75.21;99785.16;6189533;28;20237;-54
2021/04/05 05:02:26;;;;;;;2.47;1.13;;;;;;;5.28;74.56;99767.84;6216927;28;20229;-54
2021/04/05 05:05:47;;;;;;;1.47;1.30;;;;;;;5.39;74.72;99770.38;6216112;28;20234;-52
2021/04/05 05:09:08;;;;;;;2.77;1.40;;;;;;;5.47;74.50;99771.22;6200777;28;20233;-51
2021/04/05 05:12:28;;;;;;;2.27;1.30;;;;;;;5.19;75.07;99763.56;6227851;28;20241;-52
2021/04/05 05:15:52;;;;;;;1.33;1.17;;;;;;;5.28;75.09;99783.34;6206404;28;20237;-51
2021/04/05 05:19:14;;;;;;;3.13;1.17;;;;;;;5.35;75.45;99789.34;6215274;28;20229;-51
2021/04/05 05:22:38;;;;;;;3.33;0.97;;;;;;;5.57;74.70;99803.03;6220667;28;20233;-47
2021/04/05 05:26:00;;;;;;;6.20;2.37;;;;;;;5.64;74.13;99815.91;6237784;28;20232;-53
2021/04/05 05:29:22;;;;;;;4.37;1.57;;;;;;;5.52;74.20;99814.25;6221043;28;20874;-50
2021/04/05 05:32:43;;;;;;;2.43;2.03;;;;;;;5.30;73.51;99816.03;6210479;28;20222;-47
2021/04/05 05:36:04;;;;;;;5.97;2.17;;;;;;;5.40;72.86;99808.25;6197884;28;20238;-54
2021/04/05 05:39:26;;;;;;;4.47;1.83;;;;;;;5.59;70.36;99809.88;6234659;28;20235;-50
2021/04/05 05:43:01;;;;;;;4.07;1.27;;;;;;;5.39;69.50;99803.94;6229709;28;20243;-54
2021/04/05 05:46:30;;;;;;;7.07;1.67;;;;;;;5.14;68.79;99814.38;6221729;28;20634;-50
2021/04/05 05:50:02;;;;;;;7.83;3.57;;;;;;;5.45;69.77;99824.59;6227629;28;20570;-49
2021/04/05 05:53:42;;;;;;;6.33;2.17;;;;;;;5.53;69.50;99828.84;6219256;28;20617;-52
2021/04/05 05:57:09;;;;;;;4.27;1.93;;;;;;;5.50;69.41;99830.59;6233136;28;20501;-53
2021/04/05 06:00:33;;;;;;;6.13;1.93;;;;;;;5.25;69.72;99853.94;6218455;28;20229;-54
2021/04/05 06:03:59;;;;;;;5.67;1.83;;;;;;;5.04;70.83;99861.69;6192272;28;20242;-51
2021/04/05 06:07:24;;;;;;;5.10;1.73;;;;;;;4.98;70.65;99867.72;6204603;28;20615;-54
2021/04/05 06:10:51;;;;;;;5.40;2.07;;;;;;;5.29;69.64;99855.63;6227423;28;20328;-55
2021/04/05 06:14:23;;;;;;;5.40;1.67;;;;;;;4.94;68.69;99871.16;6242016;28;20232;-47
2021/04/05 06:18:02;;;;;;;8.47;2.77;;;;;;;4.97;68.21;99845.38;6240555;28;20228;-53
2021/04/05 06:21:35;;;;;;;7.47;2.43;;;;;;;4.93;67.45;99847.09;6219894;28;20815;-52
2021/04/05 06:25:04;;;;;;;3.73;1.77;;;;;;;4.88;68.64;99833.34;6213030;28;20335;-50
2021/04/05 06:28:34;;;;;;;5.53;2.07;;;;;;;5.29;67.64;99841.84;6224337;28;20236;-49
2021/04/05 06:32:14;;;;;;;5.00;1.90;;;;;;;5.29;68.11;99854.75;6232156;28;20228;-51
2021/04/05 06:36:10;;;;;;;5.97;2.77;;;;;;;5.08;68.21;99863.44;6220305;28;20237;-53
2021/04/05 06:39:35;;;;;;;4.10;1.43;;;;;;;5.33;66.35;99865.09;6228094;28;20240;-50
2021/04/05 06:43:28;;;;;;;7.17;2.33;;;;;;;5.12;67.17;99870.31;6227860;28;20228;-51
2021/04/05 06:47:15;;;;;;;7.53;1.60;;;;;;;4.97;65.34;99878.06;6248462;28;20232;-52
2021/04/05 06:50:40;;;;;;;5.47;1.67;;;;;;;5.01;65.09;99870.31;6229797;28;20224;-53
2021/04/05 06:54:22;;;;;;;8.37;1.80;;;;;;;4.59;65.86;99860.88;6232573;28;20253;-53
2021/04/05 06:57:51;;;;;;;4.00;2.10;;;;;;;4.74;66.83;99869.47;6221024;28;20324;-53
2021/04/05 07:01:37;;;;;;;4.97;1.40;;;;;;;4.92;67.17;99883.22;6239721;28;20232;-48
2021/04/05 07:05:09;;;;;;;3.13;1.47;;;;;;;4.93;67.21;99875.47;6268981;28;20239;-52
2021/04/05 07:08:35;;;;;;;4.93;1.40;;;;;;;5.02;66.48;99877.19;6218894;28;20318;-50
2021/04/05 07:12:24;;;;;;;6.17;1.90;;;;;;;4.68;68.10;99871.19;6219551;28;20233;-51
2021/04/05 07:15:53;;;;;;;5.20;2.57;;;;;;;4.71;66.78;99863.44;6235074;28;20241;-49
2021/04/05 07:19:30;;;;;;;3.87;1.70;;;;;;;4.85;67.39;99860.88;6212599;28;20221;-50
2021/04/05 07:23:05;;;;;;;3.00;1.53;;;;;;;4.77;66.46;99878.94;6210749;28;20229;-53
2021/04/05 07:26:31;;;;;;;6.33;2.20;;;;;;;4.33;67.71;99865.16;6231111;28;20232;-51
2021/04/05 07:30:02;;;;;;;5.57;1.67;;;;;;;4.47;67.25;99849.69;6207938;28;20233;-53
2021/04/05 07:33:32;;;;;;;4.20;1.37;;;;;;;4.44;68.42;99864.28;6195975;28;20233;-53
2021/04/05 07:36:59;;;;;;;3.40;1.67;;;;;;;4.50;68.39;99860.03;6231897;28;20263;-50
2021/04/05 07:40:35;;;;;;;10.90;2.87;;;;;;;4.47;68.22;99862.59;6208184;28;20241;-50
2021/04/05 07:44:23;;;;;;;6.20;2.33;;;;;;;4.85;67.68;99877.22;6218363;28;20225;-49
2021/04/05 07:47:51;;;;;;;12.77;3.83;;;;;;;4.89;66.86;99883.22;6231100;28;20250;-50
2021/04/05 07:51:18;;;;;;;12.50;4.83;;;;;;;4.36;67.71;99882.34;6261283;28;20220;-53
2021/04/05 07:54:39;;;;;;;8.53;1.83;;;;;;;4.66;68.03;99888.41;6246806;28;20229;-49
2021/04/05 07:58:09;;;;;;;3.50;1.90;;;;;;;5.01;66.10;99892.69;6218138;28;20229;-52
2021/04/05 08:01:42;;;;;;;5.77;2.10;;;;;;;5.73;62.97;99887.31;6231891;28;20232;-51
2021/04/05 08:05:16;;;;;;;9.63;3.00;;;;;;;5.76;62.18;99873.50;6193250;28;20228;-53
2021/04/05 08:08:45;;;;;;;7.43;2.53;;;;;;;5.81;62.29;99866.63;6218377;28;20241;-53
2021/04/05 08:12:21;;;;;;;9.37;2.17;;;;;;;5.93;59.11;99861.38;6210226;28;20233;-48
2021/04/05 08:15:55;;;;;;;9.93;2.03;;;;;;;5.99;59.40;99895.00;6238890;28;20236;-52
2021/04/05 08:19:22;;;;;;;3.83;1.70;;;;;;;5.22;60.14;99908.13;6200992;28;20237;-52
2021/04/05 08:22:49;;;;;;;2.30;0.73;;;;;;;4.67;58.39;99913.31;6198527;28;20237;-52
2021/04/05 08:26:22;;;;;;;0.90;0.70;;;;;;;4.53;59.52;99911.56;6232243;28;20224;-52
2021/04/05 08:29:48;;;;;;;0.60;0.60;;;;;;;4.35;61.33;99932.19;6236430;28;20236;-54
2021/04/05 08:33:26;;;;;;;0.90;0.60;;;;;;;4.68;60.77;99936.53;6204728;28;20609;-49
2021/04/05 08:37:06;;;;;;;0.97;0.60;;;;;;;5.02;60.72;99946.00;6192905;28;20230;-50
2021/04/05 08:40:31;;;;;;;3.97;1.47;;;;;;;5.04;61.30;99939.09;6221714;28;20589;-52
2021/04/05 08:43:59;;;;;;;0.73;0.70;;;;;;;4.67;61.34;99960.63;6234319;28;20808;-50
2021/04/05 08:47:24;;;;;;;0.60;0.60;;;;;;;4.66;61.14;99968.34;6204161;28;20241;-53
2021/04/05 08:50:50;;;;;;;1.10;0.80;;;;;;;5.14;60.99;99974.41;6204260;28;20744;-51
2021/04/05 08:54:14;;;;;;;1.90;0.60;;;;;;;4.81;60.77;99989.00;6209407;28;20614;-49
2021/04/05 08:57:39;;;;;;;1.70;0.70;;;;;;;4.29;63.04;100017.25;6238590;28;20240;-51
2021/04/05 09:01:05;;;;;;;2.13;0.70;;;;;;;3.75;62.27;100050.47;6236484;28;20641;-53
2021/04/05 09:04:28;;;;;;;2.20;0.80;;;;;;;3.83;60.95;100053.09;6205134;28;20640;-51
2021/04/05 09:07:59;;;;;;;4.80;1.57;;;;;;;4.33;60.11;100058.50;6191657;28;20316;-53
2021/04/05 09:11:22;;;;;;;2.47;1.10;;;;;;;4.89;56.22;100044.06;6238301;28;20232;-50
2021/04/05 09:15:09;;;;;;;5.40;1.40;;;;;;;5.07;54.59;100050.09;6240635;28;20232;-52
2021/04/05 09:18:49;;;;;;;4.07;1.10;;;;;;;5.01;54.27;100048.38;6228190;28;20228;-50
2021/04/05 09:22:46;;;;;;;2.40;1.57;;;;;;;5.52;54.59;100045.78;6195734;28;20225;-50
2021/04/05 09:26:39;;;;;;;4.07;1.57;;;;;;;6.11;52.92;100042.28;6213841;28;20638;-49
2021/04/05 09:30:28;;;;;;;3.87;2.00;;;;;;;6.10;50.75;100040.53;6195380;28;20621;-54
2021/04/05 09:34:10;;;;;;;4.93;2.27;;;;;;;6.41;50.47;100043.00;6237227;28;20260;-49
2021/04/05 09:37:54;;;;;;;4.97;1.83;;;;;;;6.80;48.75;100033.31;6236319;28;20225;-52
2021/04/05 09:41:46;;;;;;;9.63;2.47;;;;;;;6.96;48.38;100030.63;6236061;28;20236;-52
2021/04/05 09:45:18;;;;;;;6.70;1.83;;;;;;;6.19;47.91;100029.31;6237774;28;20686;-54
2021/04/05 09:48:50;;;;;;;7.67;3.07;;;;;;;6.78;44.98;100022.13;6221282;28;20236;-51
2021/04/05 09:52:30;;;;;;;7.90;1.73;;;;;;;7.15;43.78;100016.69;6238982;28;20232;-54
2021/04/05 09:55:54;;;;;;;3.67;2.93;;;;;;;7.33;43.10;100015.69;6216891;28;20263;-56
2021/04/05 09:59:18;;;;;;;7.50;2.60;;;;;;;6.77;42.87;100025.59;6240876;28;20220;-49
2021/04/05 10:02:48;;;;;;;6.43;1.50;;;;;;;6.25;43.54;100024.13;6221763;28;20232;-54
2021/04/05 10:06:10;;;;;;;9.07;2.93;;;;;;;5.87;40.12;100047.47;6216057;28;20228;-51
2021/04/05 10:09:33;;;;;;;5.17;2.07;;;;;;;6.29;37.63;100036.16;6219700;28;20248;-49
2021/04/05 10:12:55;;;;;;;4.07;2.07;;;;;;;6.64;37.73;100021.34;6221724;28;20241;-49
2021/04/05 10:16:19;;;;;;;4.67;1.40;;;;;;;6.64;36.73;100019.63;6223607;28;20228;-47
2021/04/05 10:19:42;;;;;;;2.00;1.17;;;;;;;7.68;35.20;100040.44;6207164;28;20253;-53
2021/04/05 10:23:05;;;;;;;6.40;1.43;;;;;;;7.35;33.66;100023.44;6199576;28;20225;-50
2021/04/05 10:26:30;;;;;;;4.50;1.37;;;;;;;6.37;32.58;100023.22;6215482;28;20636;-55
2021/04/05 10:29:53;;;;;;;4.57;1.97;;;;;;;6.77;33.78;100028.19;6218296;28;20241;-50
2021/04/05 10:33:15;;;;;;;6.33;2.60;;;;;;;7.48;32.61;100025.03;6230604;28;20568;-47
2021/04/05 10:36:44;;;;;;;6.97;1.80;;;;;;;7.44;31.41;100020.75;6239488;28;20229;-50
2021/04/05 10:40:10;;;;;;;3.03;1.50;;;;;;;7.00;31.57;100029.75;6232946;28;20224;-54
2021/04/05 10:43:36;;;;;;;4.83;1.83;;;;;;;7.39;31.92;100026.00;6212682;28;20690;-50
2021/04/05 10:47:00;;;;;;;6.50;1.40;;;;;;;7.68;29.89;100009.31;6232184;28;20228;-49
2021/04/05 10:50:26;;;;;;;8.33;2.50;;;;;;;7.95;31.79;100020.25;6200532;28;20265;-54
2021/04/05 10:53:51;;;;;;;5.63;2.23;;;;;;;8.54;32.15;100010.06;6199413;28;20241;-51
2021/04/05 10:57:14;;;;;;;9.30;2.97;;;;;;;7.78;31.69;100046.38;6219804;28;20997;-52
2021/04/05 11:00:37;;;;;;;6.47;2.00;;;;;;;7.09;32.93;100043.50;6219945;28;20226;-54
2021/04/05 11:03:59;;;;;;;9.97;1.87;;;;;;;7.66;33.76;100037.84;6239757;28;20236;-49
2021/04/05 11:07:21;;;;;;;8.83;2.47;;;;;;;8.26;30.94;100047.56;6211429;28;20260;-50
2021/04/05 11:10:45;;;;;;;7.97;2.23;;;;;;;6.66;31.63;100061.88;6231807;28;20324;-53
2021/04/05 11:14:09;;;;;;;3.37;1.43;;;;;;;6.97;28.88;100066.88;6231960;28;20236;-53
2021/04/05 11:17:31;;;;;;;2.37;1.03;;;;;;;9.33;25.48;100052.19;6222222;28;20795;-56
2021/04/05 11:20:56;;;;;;;7.33;2.13;;;;;;;10.61;23.92;100040.25;6216857;28;20229;-55
2021/04/05 11:24:27;;;;;;;2.93;1.27;;;;;;;12.75;21.62;100041.75;6204981;28;20225;-54
2021/04/05 11:27:52;;;;;;;2.53;1.30;;;;;;;15.89;18.81;100044.25;6243390;28;20235;-51
2021/04/05 11:31:15;;;;;;;3.63;1.80;;;;;;;15.17;19.62;100055.13;6239111;28;20232;-53
2021/04/05 11:34:37;;;;;;;3.40;1.23;;;;;;;12.04;24.47;100037.69;6242405;28;20241;-54
2021/04/05 11:38:01;;;;;;;8.53;3.20;;;;;;;8.37;33.97;100078.56;6213222;28;20225;-52
2021/04/05 11:41:27;;;;;;;4.03;1.33;;;;;;;10.89;28.78;100076.13;6216314;28;20233;-49
2021/04/05 11:44:51;;;;;;;3.30;1.20;;;;;;;14.15;24.15;100077.28;6231319;28;20235;-56
2021/04/05 11:48:17;;;;;;;5.63;2.03;;;;;;;11.96;27.17;100104.00;6221491;28;20238;-54
2021/04/05 11:51:45;;;;;;;1.77;0.70;;;;;;;9.87;26.92;100100.69;6220091;28;20253;-51
2021/04/05 11:55:08;;;;;;;2.63;0.83;;;;;;;11.60;26.51;100088.34;6223274;28;20236;-51
2021/04/05 11:58:35;;;;;;;1.07;0.90;;;;;;;11.48;26.78;100072.19;6229490;28;20243;-53
2021/04/05 12:02:06;;;;;;;3.10;1.47;;;;;;;15.70;21.29;100082.69;6222789;28;20232;-52
2021/04/05 12:05:30;;;;;;;2.90;1.20;;;;;;;15.06;22.38;100066.06;6241994;28;20240;-52
2021/04/05 12:08:55;;;;;;;6.70;1.77;;;;;;;15.58;22.52;100096.34;6222992;28;20232;-57
2021/04/05 12:12:19;;;;;;;4.50;2.65;;;;;;;11.47;28.56;100076.50;6223910;28;20702;-53
2021/04/05 12:15:41;;;;;;;3.80;1.50;;;;;;;7.03;43.05;100161.78;6222776;28;20581;-52
2021/04/05 12:19:04;;;;;;;6.00;1.83;;;;;;;6.01;49.28;100156.03;6193813;28;20263;-52
2021/04/05 12:22:25;;;;;;;8.77;1.67;;;;;;;5.66;46.96;100152.56;6201172;28;20234;-53
2021/04/05 12:25:51;;;;;;;5.63;1.80;;;;;;;6.24;45.68;100136.19;6220758;28;20249;-54
2021/04/05 12:29:12;;;;;;;5.90;1.47;;;;;;;8.45;38.63;100140.78;6215941;28;20229;-52
2021/04/05 12:32:33;;;;;;;4.40;1.73;;;;;;;10.43;34.04;100135.22;6218781;28;20633;-49
2021/04/05 12:35:57;;;;;;;3.70;2.43;;;;;;;13.98;28.54;100140.69;6210840;28;20642;-53
2021/04/05 12:39:18;;;;;;;5.33;1.60;;;;;;;14.09;28.75;100116.75;6236365;28;20256;-54
2021/04/05 12:42:40;;;;;;;2.50;1.50;;;;;;;9.48;35.18;100122.97;6217300;28;20312;-52
2021/04/05 12:46:02;;;;;;;3.50;1.27;;;;;;;9.19;38.94;100132.94;6224577;28;20229;-53
2021/04/05 12:49:26;;;;;;;3.27;1.10;;;;;;;11.99;35.39;100131.78;6237312;28;20350;-51
2021/04/05 12:52:49;;;;;;;5.13;1.00;;;;;;;14.28;30.65;100127.44;6216210;28;20225;-54
2021/04/05 12:56:16;;;;;;;4.07;1.43;;;;;;;13.92;29.51;100113.84;6231370;28;20634;-52
2021/04/05 12:59:37;;;;;;;1.73;1.00;;;;;;;11.54;37.78;100111.97;6208082;28;20221;-51
2021/04/05 13:03:04;;;;;;;4.23;2.13;;;;;;;9.32;38.18;100117.16;6216950;28;20237;-54
2021/04/05 13:06:34;;;;;;;4.83;1.80;;;;;;;8.86;39.63;100135.13;6212000;28;20236;-53
2021/04/05 13:09:59;;;;;;;3.10;1.43;;;;;;;7.67;41.02;100152.72;6218931;28;20656;-52
2021/04/05 13:13:22;;;;;;;4.60;1.63;;;;;;;6.26;47.01;100196.53;6223613;28;20500;-52
2021/04/05 13:16:52;;;;;;;4.40;1.57;;;;;;;4.89;55.95;100222.09;6213901;28;20225;-51
2021/04/05 13:20:17;;;;;;;2.27;1.37;;;;;;;3.75;63.49;100225.59;6220322;28;20228;-51
2021/04/05 13:23:44;;;;;;;2.00;1.00;;;;;;;3.17;65.65;100206.97;6214960;28;20225;-51
2021/04/05 13:27:09;;;;;;;1.77;0.90;;;;;;;3.70;61.97;100189.50;6221308;28;20614;-55
2021/04/05 13:30:32;;;;;;;3.03;1.23;;;;;;;5.24;57.27;100169.72;6218105;28;20256;-52
2021/04/05 13:33:54;;;;;;;3.03;1.13;;;;;;;9.06;45.27;100167.75;6226117;28;20228;-53
2021/04/05 13:37:16;;;;;;;3.30;1.97;;;;;;;11.90;40.04;100152.88;6238093;28;20519;-49
2021/04/05 13:40:40;;;;;;;1.73;0.90;;;;;;;11.27;39.39;100138.72;6227213;28;20224;-54
2021/04/05 13:44:07;;;;;;;2.37;1.57;;;;;;;11.84;37.77;100135.59;6206803;28;20253;-51
2021/04/05 13:47:30;;;;;;;4.17;1.30;;;;;;;9.85;39.39;100118.91;6211814;28;20233;-51
2021/04/05 13:50:56;;;;;;;4.70;1.53;;;;;;;10.19;39.65;100133.03;6224856;28;20240;-50
2021/04/05 13:54:22;;;;;;;4.07;1.40;;;;;;;10.15;36.49;100131.38;6212663;28;20493;-52
2021/04/05 13:57:46;;;;;;;2.13;1.50;;;;;;;9.02;39.15;100117.59;6210693;28;20266;-51
2021/04/05 14:01:10;;;;;;;5.77;1.80;;;;;;;6.50;45.19;100128.34;6206931;28;20662;-51
2021/04/05 14:04:40;;;;;;;3.83;1.70;;;;;;;5.70;49.55;100127.59;6211697;28;20716;-50
2021/04/05 14:08:03;;;;;;;4.40;1.93;;;;;;;5.21;53.31;100143.91;6204391;28;20228;-51
2021/04/05 14:11:28;;;;;;;9.37;3.23;;;;;;;5.80;53.13;100141.38;6219472;28;20260;-54
2021/04/05 14:14:49;;;;;;;4.73;1.97;;;;;;;6.43;48.86;100130.97;6216208;28;20225;-52
2021/04/05 14:18:16;;;;;;;4.17;2.10;;;;;;;6.48;48.51;100129.22;6237013;28;20303;-54
2021/04/05 14:21:44;;;;;;;9.30;2.60;;;;;;;7.11;46.63;100123.75;6237715;28;20232;-51
2021/04/05 14:25:06;;;;;;;9.33;3.57;;;;;;;6.10;45.48;100106.91;6226424;28;20509;-51
2021/04/05 14:28:32;;;;;;;3.60;2.10;;;;;;;8.72;40.20;100105.84;6203530;28;20230;-55
2021/04/05 14:31:59;;;;;;;7.23;3.27;;;;;;;7.09;44.37;100120.31;6217347;28;20240;-50
2021/04/05 14:35:28;;;;;;;6.20;2.93;;;;;;;6.78;44.53;100123.06;6211786;28;20321;-52
2021/04/05 14:38:52;;;;;;;10.93;3.03;;;;;;;8.47;41.58;100133.84;6228618;28;20240;-52
2021/04/05 14:42:19;;;;;;;9.47;2.87;;;;;;;8.15;42.33;100127.25;6236150;28;20723;-51
2021/04/05 14:45:41;;;;;;;6.30;2.67;;;;;;;7.37;43.89;100185.75;6229190;28;20332;-49
2021/04/05 14:49:01;;;;;;;12.83;2.33;;;;;;;6.69;44.88;100157.59;6210883;28;20229;-54
2021/04/05 14:52:26;;;;;;;8.53;2.00;;;;;;;6.13;44.84;100183.59;6225021;28;20626;-54
2021/04/05 14:55:49;;;;;;;6.77;2.27;;;;;;;6.62;44.06;100168.84;6223234;28;20236;-54
2021/04/05 14:59:09;;;;;;;6.43;2.30;;;;;;;6.72;43.93;100184.34;6216662;28;20229;-52
2021/04/05 15:02:36;;;;;;;8.67;2.50;;;;;;;6.28;45.87;100173.22;6213621;28;20237;-52
2021/04/05 15:05:59;;;;;;;6.13;1.47;;;;;;;5.76;47.45;100168.94;6242908;28;20244;-54
2021/04/05 15:09:26;;;;;;;6.23;2.10;;;;;;;6.88;46.53;100162.69;6239120;28;20256;-53
2021/04/05 15:12:55;;;;;;;5.57;1.83;;;;;;;7.78;42.92;100160.44;6234120;28;20546;-55
2021/04/05 15:16:19;;;;;;;5.17;1.70;;;;;;;8.27;42.29;100173.78;6206618;28;20682;-49
2021/04/05 15:19:43;;;;;;;3.97;1.60;;;;;;;7.89;40.03;100143.06;6223217;28;20244;-52
2021/04/05 15:23:05;;;;;;;5.70;2.17;;;;;;;7.42;40.29;100136.50;6192781;28;20221;-51
2021/04/05 15:26:27;;;;;;;10.63;2.80;;;;;;;7.14;40.17;100151.38;6218234;28;20236;-54
2021/04/05 15:29:49;;;;;;;8.63;2.03;;;;;;;7.17;40.30;100140.97;6230362;28;20232;-52
2021/04/05 15:33:11;;;;;;;9.63;2.00;;;;;;;7.87;40.34;100161.22;6221368;28;20508;-53
2021/04/05 15:36:32;;;;;;;9.07;2.40;;;;;;;7.48;41.62;100163.25;6220963;28;20232;-52
2021/04/05 15:39:54;;;;;;;6.43;2.33;;;;;;;7.15;41.43;100178.97;6235337;28;20236;-52
2021/04/05 15:43:21;;;;;;;8.10;2.37;;;;;;;7.11;40.87;100172.94;6244241;28;20713;-53
2021/04/05 15:46:53;;;;;;;7.40;2.40;;;;;;;7.38;40.69;100158.13;6216194;28;20236;-54
2021/04/05 15:50:18;;;;;;;10.00;2.73;;;;;;;7.62;40.96;100165.72;6218645;28;20224;-54
2021/04/05 15:53:38;;;;;;;5.90;2.27;;;;;;;7.39;40.00;100188.34;6194368;28;20485;-53
2021/04/05 15:57:05;;;;;;;5.77;2.50;;;;;;;8.26;42.49;100171.25;6219439;28;20550;-54
2021/04/05 16:00:30;;;;;;;12.63;2.60;;;;;;;8.41;39.04;100194.47;6209357;28;20237;-55
2021/04/05 16:03:54;;;;;;;5.93;1.90;;;;;;;8.06;38.25;100177.47;6203915;28;20580;-54
2021/04/05 16:07:21;;;;;;;4.57;2.10;;;;;;;7.68;38.11;100183.81;6215783;28;20225;-55